LSZR/ACH METAR and TAF weather

Enter ICAO airport designator
Station Type Date Time Source
LSZR METAR 2019/07/17 12:20 UTC NOAA

LSZR 171220Z 02004KT 330V080 9999 FEW060 25/14 Q1014 NOSIG RMK I


Station Type Date Time Source
LSZR Decoded METAR 2019/07/17 12:20 UTC NOAA

Saint Gallen-Altenrhein, Switzerland (LSZR) 47-29-06N 009-33-43E
Jul 17, 2019 - 08:20 AM EDT / 2019.07.17 1220 UTC
Wind: from the NNE (020 degrees) at 5 MPH (4 KT) (direction variable):0
Visibility: greater than 7 mile(s):0
Sky conditions: mostly clear
Temperature: 77 F (25 C)
Dew Point: 57 F (14 C)
Relative Humidity: 50%
Pressure (altimeter): 29.94 in. Hg (1014 hPa)
ob: LSZR 171220Z 02004KT 330V080 9999 FEW060 25/14 Q1014 NOSIG RMK I
cycle: 12

Station Type Date Time Source
LSZR TAF 2014/12/22 20:03 UTC NOAA

TAF
AMD LSZR 222054Z 2220/2224 CNL

Example: see airport list